sensor_id;sensor_type;location;lat;lon;timestamp;P1;durP1;ratioP1;P2;durP2;ratioP2
61642;SDS011;47551;52.506;4.678;2022-12-07T00:00:03;5.77;;;1.17;;
61642;SDS011;47551;52.506;4.678;2022-12-07T00:00:24;4.45;;;1.00;;
61642;SDS011;47551;52.506;4.678;2022-12-07T00:00:44;6.37;;;1.30;;
61642;SDS011;47551;52.506;4.678;2022-12-07T00:01:05;6.87;;;1.20;;
61642;SDS011;47551;52.506;4.678;2022-12-07T00:01:27;6.43;;;1.02;;
61642;SDS011;47551;52.506;4.678;2022-12-07T00:01:48;5.22;;;1.00;;
61642;SDS011;47551;52.506;4.678;2022-12-07T00:02:08;4.97;;;1.03;;
61642;SDS011;47551;52.506;4.678;2022-12-07T00:02:28;5.13;;;1.15;;
61642;SDS011;47551;52.506;4.678;2022-12-07T00:02:49;7.13;;;1.00;;
61642;SDS011;47551;52.506;4.678;2022-12-07T00:03:09;7.97;;;1.20;;
61642;SDS011;47551;52.506;4.678;2022-12-07T00:03:29;7.47;;;1.27;;
61642;SDS011;47551;52.506;4.678;2022-12-07T00:03:50;7.67;;;1.10;;
61642;SDS011;47551;52.506;4.678;2022-12-07T00:04:12;5.00;;;0.90;;
61642;SDS011;47551;52.506;4.678;2022-12-07T00:04:32;5.78;;;0.98;;
61642;SDS011;47551;52.506;4.678;2022-12-07T00:04:52;5.90;;;1.10;;
61642;SDS011;47551;52.506;4.678;2022-12-07T00:05:12;5.67;;;1.00;;
61642;SDS011;47551;52.506;4.678;2022-12-07T00:05:33;6.57;;;1.30;;
61642;SDS011;47551;52.506;4.678;2022-12-07T00:05:53;6.90;;;1.40;;
61642;SDS011;47551;52.506;4.678;2022-12-07T00:06:17;6.75;;;1.23;;
61642;SDS011;47551;52.506;4.678;2022-12-07T00:06:38;5.93;;;1.40;;
61642;SDS011;47551;52.506;4.678;2022-12-07T00:06:59;7.57;;;1.60;;
61642;SDS011;47551;52.506;4.678;2022-12-07T00:07:19;7.77;;;1.40;;
61642;SDS011;47551;52.506;4.678;2022-12-07T00:07:39;8.30;;;1.50;;
61642;SDS011;47551;52.506;4.678;2022-12-07T00:07:59;8.57;;;1.52;;
61642;SDS011;47551;52.506;4.678;2022-12-07T00:08:19;8.10;;;1.53;;
61642;SDS011;47551;52.506;4.678;2022-12-07T00:08:40;8.20;;;1.70;;
61642;SDS011;47551;52.506;4.678;2022-12-07T00:09:00;8.90;;;1.93;;
61642;SDS011;47551;52.506;4.678;2022-12-07T00:09:20;7.95;;;1.70;;
61642;SDS011;47551;52.506;4.678;2022-12-07T00:09:41;7.73;;;1.60;;
61642;SDS011;47551;52.506;4.678;2022-12-07T00:10:01;5.85;;;1.50;;
61642;SDS011;47551;52.506;4.678;2022-12-07T00:10:21;8.13;;;1.50;;
61642;SDS011;47551;52.506;4.678;2022-12-07T00:10:42;8.17;;;1.73;;
61642;SDS011;47551;52.506;4.678;2022-12-07T00:11:03;5.93;;;1.50;;
61642;SDS011;47551;52.506;4.678;2022-12-07T00:11:23;8.00;;;1.50;;
61642;SDS011;47551;52.506;4.678;2022-12-07T00:11:44;6.73;;;1.30;;
61642;SDS011;47551;52.506;4.678;2022-12-07T00:12:04;8.00;;;1.60;;
61642;SDS011;47551;52.506;4.678;2022-12-07T00:12:25;8.05;;;1.60;;
61642;SDS011;47551;52.506;4.678;2022-12-07T00:12:45;7.60;;;1.33;;
61642;SDS011;47551;52.506;4.678;2022-12-07T00:13:05;6.93;;;1.40;;
61642;SDS011;47551;52.506;4.678;2022-12-07T00:13:25;5.37;;;1.60;;
61642;SDS011;47551;52.506;4.678;2022-12-07T00:13:46;6.65;;;1.23;;
61642;SDS011;47551;52.506;4.678;2022-12-07T00:14:07;6.07;;;1.10;;
61642;SDS011;47551;52.506;4.678;2022-12-07T00:14:27;7.13;;;1.60;;
61642;SDS011;47551;52.506;4.678;2022-12-07T00:14:47;6.30;;;1.70;;
61642;SDS011;47551;52.506;4.678;2022-12-07T00:15:08;7.73;;;1.60;;
61642;SDS011;47551;52.506;4.678;2022-12-07T00:15:28;6.63;;;1.23;;
61642;SDS011;47551;52.506;4.678;2022-12-07T00:15:48;6.30;;;1.30;;
61642;SDS011;47551;52.506;4.678;2022-12-07T00:16:10;5.20;;;1.00;;
61642;SDS011;47551;52.506;4.678;2022-12-07T00:16:31;6.25;;;1.30;;
61642;SDS011;47551;52.506;4.678;2022-12-07T00:16:51;7.85;;;1.30;;
61642;SDS011;47551;52.506;4.678;2022-12-07T00:17:12;6.90;;;1.05;;
61642;SDS011;47551;52.506;4.678;2022-12-07T00:17:32;5.57;;;1.30;;
61642;SDS011;47551;52.506;4.678;2022-12-07T00:17:53;6.35;;;1.20;;
61642;SDS011;47551;52.506;4.678;2022-12-07T00:18:13;6.73;;;1.30;;
61642;SDS011;47551;52.506;4.678;2022-12-07T00:18:34;5.53;;;1.20;;
61642;SDS011;47551;52.506;4.678;2022-12-07T00:18:54;7.03;;;1.30;;
61642;SDS011;47551;52.506;4.678;2022-12-07T00:19:17;7.43;;;1.27;;
61642;SDS011;47551;52.506;4.678;2022-12-07T00:19:37;7.03;;;1.20;;
61642;SDS011;47551;52.506;4.678;2022-12-07T00:19:58;6.13;;;1.20;;
61642;SDS011;47551;52.506;4.678;2022-12-07T00:20:18;5.33;;;1.10;;
61642;SDS011;47551;52.506;4.678;2022-12-07T00:20:38;6.57;;;1.23;;
61642;SDS011;47551;52.506;4.678;2022-12-07T00:21:06;6.57;;;1.40;;
61642;SDS011;47551;52.506;4.678;2022-12-07T00:21:28;5.65;;;1.10;;
61642;SDS011;47551;52.506;4.678;2022-12-07T00:21:48;6.95;;;1.10;;
61642;SDS011;47551;52.506;4.678;2022-12-07T00:22:08;6.00;;;1.23;;
61642;SDS011;47551;52.506;4.678;2022-12-07T00:22:29;6.73;;;1.30;;
61642;SDS011;47551;52.506;4.678;2022-12-07T00:22:49;7.05;;;1.30;;
61642;SDS011;47551;52.506;4.678;2022-12-07T00:23:09;6.70;;;1.10;;
61642;SDS011;47551;52.506;4.678;2022-12-07T00:23:32;4.72;;;1.10;;
61642;SDS011;47551;52.506;4.678;2022-12-07T00:23:53;6.13;;;1.42;;
61642;SDS011;47551;52.506;4.678;2022-12-07T00:24:13;6.10;;;1.33;;
61642;SDS011;47551;52.506;4.678;2022-12-07T00:24:36;6.55;;;1.30;;
61642;SDS011;47551;52.506;4.678;2022-12-07T00:24:57;6.10;;;1.30;;
61642;SDS011;47551;52.506;4.678;2022-12-07T00:25:17;7.50;;;1.40;;
61642;SDS011;47551;52.506;4.678;2022-12-07T00:25:37;6.90;;;1.37;;
61642;SDS011;47551;52.506;4.678;2022-12-07T00:26:02;7.20;;;1.20;;
61642;SDS011;47551;52.506;4.678;2022-12-07T00:26:30;6.28;;;1.20;;
61642;SDS011;47551;52.506;4.678;2022-12-07T00:26:50;5.88;;;1.10;;
61642;SDS011;47551;52.506;4.678;2022-12-07T00:27:11;5.40;;;1.00;;
61642;SDS011;47551;52.506;4.678;2022-12-07T00:27:31;7.53;;;1.10;;
61642;SDS011;47551;52.506;4.678;2022-12-07T00:27:54;7.83;;;1.20;;
61642;SDS011;47551;52.506;4.678;2022-12-07T00:28:17;7.78;;;1.23;;
61642;SDS011;47551;52.506;4.678;2022-12-07T00:28:37;6.43;;;1.50;;
61642;SDS011;47551;52.506;4.678;2022-12-07T00:28:59;6.80;;;1.58;;
61642;SDS011;47551;52.506;4.678;2022-12-07T00:29:20;6.97;;;1.40;;
61642;SDS011;47551;52.506;4.678;2022-12-07T00:29:41;7.13;;;1.20;;
61642;SDS011;47551;52.506;4.678;2022-12-07T00:30:01;8.70;;;1.30;;
61642;SDS011;47551;52.506;4.678;2022-12-07T00:30:22;7.85;;;1.27;;
61642;SDS011;47551;52.506;4.678;2022-12-07T00:30:42;6.22;;;1.17;;
61642;SDS011;47551;52.506;4.678;2022-12-07T00:31:07;5.50;;;1.20;;
61642;SDS011;47551;52.506;4.678;2022-12-07T00:31:28;5.97;;;1.17;;
61642;SDS011;47551;52.506;4.678;2022-12-07T00:31:49;5.32;;;1.13;;
61642;SDS011;47551;52.506;4.678;2022-12-07T00:32:09;6.73;;;1.40;;
61642;SDS011;47551;52.506;4.678;2022-12-07T00:32:30;6.73;;;1.40;;
61642;SDS011;47551;52.506;4.678;2022-12-07T00:32:50;4.87;;;1.10;;
61642;SDS011;47551;52.506;4.678;2022-12-07T00:33:10;5.80;;;1.27;;
61642;SDS011;47551;52.506;4.678;2022-12-07T00:33:30;6.68;;;1.30;;
61642;SDS011;47551;52.506;4.678;2022-12-07T00:33:51;5.60;;;1.17;;
61642;SDS011;47551;52.506;4.678;2022-12-07T00:34:12;4.63;;;1.20;;
61642;SDS011;47551;52.506;4.678;2022-12-07T00:34:32;5.50;;;1.13;;
61642;SDS011;47551;52.506;4.678;2022-12-07T00:34:53;6.37;;;1.20;;
61642;SDS011;47551;52.506;4.678;2022-12-07T00:35:13;5.45;;;1.10;;
61642;SDS011;47551;52.506;4.678;2022-12-07T00:35:33;6.27;;;1.20;;
61642;SDS011;47551;52.506;4.678;2022-12-07T00:35:57;6.20;;;1.30;;
61642;SDS011;47551;52.506;4.678;2022-12-07T00:36:18;7.15;;;1.30;;
61642;SDS011;47551;52.506;4.678;2022-12-07T00:36:39;7.72;;;1.52;;
61642;SDS011;47551;52.506;4.678;2022-12-07T00:36:59;6.93;;;1.50;;
61642;SDS011;47551;52.506;4.678;2022-12-07T00:37:19;6.67;;;1.20;;
61642;SDS011;47551;52.506;4.678;2022-12-07T00:37:39;6.67;;;1.30;;
61642;SDS011;47551;52.506;4.678;2022-12-07T00:37:59;6.73;;;1.43;;
61642;SDS011;47551;52.506;4.678;2022-12-07T00:38:20;6.57;;;1.30;;
61642;SDS011;47551;52.506;4.678;2022-12-07T00:38:43;6.83;;;1.37;;
61642;SDS011;47551;52.506;4.678;2022-12-07T00:39:03;5.53;;;1.30;;
61642;SDS011;47551;52.506;4.678;2022-12-07T00:39:23;5.27;;;1.27;;
61642;SDS011;47551;52.506;4.678;2022-12-07T00:39:45;6.60;;;1.10;;
61642;SDS011;47551;52.506;4.678;2022-12-07T00:40:06;6.25;;;1.30;;
61642;SDS011;47551;52.506;4.678;2022-12-07T00:40:27;7.00;;;1.30;;
61642;SDS011;47551;52.506;4.678;2022-12-07T00:40:53;6.20;;;1.27;;
61642;SDS011;47551;52.506;4.678;2022-12-07T00:41:14;6.90;;;1.27;;
61642;SDS011;47551;52.506;4.678;2022-12-07T00:41:35;6.05;;;1.10;;
61642;SDS011;47551;52.506;4.678;2022-12-07T00:41:55;6.10;;;1.17;;
61642;SDS011;47551;52.506;4.678;2022-12-07T00:42:15;5.40;;;1.10;;
61642;SDS011;47551;52.506;4.678;2022-12-07T00:42:35;4.97;;;1.30;;
61642;SDS011;47551;52.506;4.678;2022-12-07T00:42:56;5.07;;;1.07;;
61642;SDS011;47551;52.506;4.678;2022-12-07T00:43:16;5.83;;;1.03;;
61642;SDS011;47551;52.506;4.678;2022-12-07T00:43:39;5.00;;;1.20;;
61642;SDS011;47551;52.506;4.678;2022-12-07T00:43:59;5.97;;;1.20;;
61642;SDS011;47551;52.506;4.678;2022-12-07T00:44:19;5.03;;;1.00;;
61642;SDS011;47551;52.506;4.678;2022-12-07T00:44:40;5.83;;;0.80;;
61642;SDS011;47551;52.506;4.678;2022-12-07T00:45:00;6.57;;;1.20;;
61642;SDS011;47551;52.506;4.678;2022-12-07T00:45:20;7.73;;;1.27;;
61642;SDS011;47551;52.506;4.678;2022-12-07T00:45:40;5.75;;;0.75;;
61642;SDS011;47551;52.506;4.678;2022-12-07T00:46:00;5.73;;;0.83;;
61642;SDS011;47551;52.506;4.678;2022-12-07T00:46:21;6.30;;;0.90;;
61642;SDS011;47551;52.506;4.678;2022-12-07T00:46:41;5.72;;;0.90;;
61642;SDS011;47551;52.506;4.678;2022-12-07T00:47:01;9.60;;;1.50;;
61642;SDS011;47551;52.506;4.678;2022-12-07T00:47:22;7.07;;;1.33;;
61642;SDS011;47551;52.506;4.678;2022-12-07T00:47:42;7.32;;;1.00;;
61642;SDS011;47551;52.506;4.678;2022-12-07T00:48:02;7.07;;;1.00;;
61642;SDS011;47551;52.506;4.678;2022-12-07T00:48:22;5.13;;;0.80;;
61642;SDS011;47551;52.506;4.678;2022-12-07T00:48:43;5.32;;;1.00;;
61642;SDS011;47551;52.506;4.678;2022-12-07T00:49:03;4.70;;;0.80;;
61642;SDS011;47551;52.506;4.678;2022-12-07T00:49:23;6.40;;;0.90;;
61642;SDS011;47551;52.506;4.678;2022-12-07T00:49:43;7.50;;;1.00;;
61642;SDS011;47551;52.506;4.678;2022-12-07T00:50:03;5.63;;;0.95;;
61642;SDS011;47551;52.506;4.678;2022-12-07T00:50:24;6.40;;;0.93;;
61642;SDS011;47551;52.506;4.678;2022-12-07T00:50:44;6.57;;;0.90;;
61642;SDS011;47551;52.506;4.678;2022-12-07T00:51:04;6.50;;;1.00;;
61642;SDS011;47551;52.506;4.678;2022-12-07T00:51:25;5.73;;;0.97;;
61642;SDS011;47551;52.506;4.678;2022-12-07T00:51:45;7.93;;;1.23;;
61642;SDS011;47551;52.506;4.678;2022-12-07T00:52:07;5.97;;;0.95;;
61642;SDS011;47551;52.506;4.678;2022-12-07T00:52:27;6.03;;;0.80;;
61642;SDS011;47551;52.506;4.678;2022-12-07T00:52:47;8.00;;;1.40;;
61642;SDS011;47551;52.506;4.678;2022-12-07T00:53:08;8.57;;;1.27;;
61642;SDS011;47551;52.506;4.678;2022-12-07T00:53:28;7.57;;;0.80;;
61642;SDS011;47551;52.506;4.678;2022-12-07T00:53:48;4.47;;;0.70;;
61642;SDS011;47551;52.506;4.678;2022-12-07T00:54:08;6.03;;;0.90;;
61642;SDS011;47551;52.506;4.678;2022-12-07T00:54:29;7.03;;;1.00;;
61642;SDS011;47551;52.506;4.678;2022-12-07T00:54:49;6.73;;;1.00;;
61642;SDS011;47551;52.506;4.678;2022-12-07T00:55:09;6.37;;;0.90;;
61642;SDS011;47551;52.506;4.678;2022-12-07T00:55:32;6.90;;;0.95;;
61642;SDS011;47551;52.506;4.678;2022-12-07T00:55:53;7.18;;;1.25;;
61642;SDS011;47551;52.506;4.678;2022-12-07T00:56:14;5.27;;;1.00;;
61642;SDS011;47551;52.506;4.678;2022-12-07T00:56:35;3.90;;;0.80;;
61642;SDS011;47551;52.506;4.678;2022-12-07T00:56:55;5.43;;;0.80;;
61642;SDS011;47551;52.506;4.678;2022-12-07T00:57:15;7.93;;;1.00;;
61642;SDS011;47551;52.506;4.678;2022-12-07T00:57:35;8.20;;;1.10;;
61642;SDS011;47551;52.506;4.678;2022-12-07T00:57:55;7.73;;;1.10;;
61642;SDS011;47551;52.506;4.678;2022-12-07T00:58:18;5.67;;;0.80;;
61642;SDS011;47551;52.506;4.678;2022-12-07T00:58:39;4.50;;;0.70;;
61642;SDS011;47551;52.506;4.678;2022-12-07T00:59:00;5.37;;;0.80;;
61642;SDS011;47551;52.506;4.678;2022-12-07T00:59:20;5.10;;;0.80;;
61642;SDS011;47551;52.506;4.678;2022-12-07T00:59:40;5.83;;;0.80;;
61642;SDS011;47551;52.506;4.678;2022-12-07T01:00:01;5.78;;;0.98;;
61642;SDS011;47551;52.506;4.678;2022-12-07T01:00:21;6.87;;;1.00;;
61642;SDS011;47551;52.506;4.678;2022-12-07T01:00:42;6.90;;;1.00;;
61642;SDS011;47551;52.506;4.678;2022-12-07T01:01:03;5.07;;;0.88;;
61642;SDS011;47551;52.506;4.678;2022-12-07T01:01:25;5.50;;;1.02;;
61642;SDS011;47551;52.506;4.678;2022-12-07T01:01:45;6.85;;;0.90;;
61642;SDS011;47551;52.506;4.678;2022-12-07T01:02:05;4.88;;;0.70;;
61642;SDS011;47551;52.506;4.678;2022-12-07T01:02:25;5.23;;;0.80;;
61642;SDS011;47551;52.506;4.678;2022-12-07T01:02:46;5.53;;;0.70;;
61642;SDS011;47551;52.506;4.678;2022-12-07T01:03:06;5.93;;;0.70;;
61642;SDS011;47551;52.506;4.678;2022-12-07T01:03:27;5.80;;;0.98;;
61642;SDS011;47551;52.506;4.678;2022-12-07T01:03:47;4.60;;;0.90;;
61642;SDS011;47551;52.506;4.678;2022-12-07T01:04:07;5.73;;;0.80;;
61642;SDS011;47551;52.506;4.678;2022-12-07T01:04:28;6.90;;;0.70;;
61642;SDS011;47551;52.506;4.678;2022-12-07T01:04:48;6.32;;;0.80;;
61642;SDS011;47551;52.506;4.678;2022-12-07T01:05:08;5.73;;;0.87;;
61642;SDS011;47551;52.506;4.678;2022-12-07T01:05:28;5.63;;;0.80;;
61642;SDS011;47551;52.506;4.678;2022-12-07T01:05:52;4.88;;;0.85;;
61642;SDS011;47551;52.506;4.678;2022-12-07T01:06:16;7.75;;;0.90;;
61642;SDS011;47551;52.506;4.678;2022-12-07T01:06:37;6.00;;;0.90;;
61642;SDS011;47551;52.506;4.678;2022-12-07T01:06:58;5.70;;;0.85;;
61642;SDS011;47551;52.506;4.678;2022-12-07T01:07:18;5.47;;;0.80;;
61642;SDS011;47551;52.506;4.678;2022-12-07T01:07:38;7.27;;;0.87;;
61642;SDS011;47551;52.506;4.678;2022-12-07T01:07:58;5.10;;;0.80;;
61642;SDS011;47551;52.506;4.678;2022-12-07T01:08:18;6.23;;;0.80;;
61642;SDS011;47551;52.506;4.678;2022-12-07T01:08:39;6.63;;;0.97;;
61642;SDS011;47551;52.506;4.678;2022-12-07T01:08:59;6.47;;;0.93;;
61642;SDS011;47551;52.506;4.678;2022-12-07T01:09:19;5.90;;;1.00;;
61642;SDS011;47551;52.506;4.678;2022-12-07T01:09:40;7.30;;;0.80;;
61642;SDS011;47551;52.506;4.678;2022-12-07T01:10:00;6.17;;;0.70;;
61642;SDS011;47551;52.506;4.678;2022-12-07T01:10:20;6.43;;;0.95;;
61642;SDS011;47551;52.506;4.678;2022-12-07T01:10:40;4.83;;;0.80;;
61642;SDS011;47551;52.506;4.678;2022-12-07T01:11:04;5.03;;;0.67;;
61642;SDS011;47551;52.506;4.678;2022-12-07T01:11:26;5.53;;;0.95;;
61642;SDS011;47551;52.506;4.678;2022-12-07T01:11:46;6.40;;;0.98;;
61642;SDS011;47551;52.506;4.678;2022-12-07T01:12:06;6.80;;;1.00;;
61642;SDS011;47551;52.506;4.678;2022-12-07T01:12:27;6.13;;;0.85;;
61642;SDS011;47551;52.506;4.678;2022-12-07T01:12:47;5.47;;;1.17;;
61642;SDS011;47551;52.506;4.678;2022-12-07T01:13:07;5.33;;;0.90;;
61642;SDS011;47551;52.506;4.678;2022-12-07T01:13:27;5.25;;;1.00;;
61642;SDS011;47551;52.506;4.678;2022-12-07T01:13:51;5.67;;;0.90;;
61642;SDS011;47551;52.506;4.678;2022-12-07T01:14:12;5.53;;;1.00;;
61642;SDS011;47551;52.506;4.678;2022-12-07T01:14:32;5.60;;;1.00;;
61642;SDS011;47551;52.506;4.678;2022-12-07T01:14:52;6.65;;;1.00;;
61642;SDS011;47551;52.506;4.678;2022-12-07T01:15:12;4.63;;;0.80;;
61642;SDS011;47551;52.506;4.678;2022-12-07T01:15:32;6.20;;;0.90;;
61642;SDS011;47551;52.506;4.678;2022-12-07T01:15:55;6.47;;;1.00;;
61642;SDS011;47551;52.506;4.678;2022-12-07T01:16:16;6.75;;;0.77;;
61642;SDS011;47551;52.506;4.678;2022-12-07T01:16:38;5.60;;;1.00;;
61642;SDS011;47551;52.506;4.678;2022-12-07T01:16:58;6.10;;;0.98;;
61642;SDS011;47551;52.506;4.678;2022-12-07T01:17:24;5.88;;;0.90;;
61642;SDS011;47551;52.506;4.678;2022-12-07T01:17:44;5.53;;;0.87;;
61642;SDS011;47551;52.506;4.678;2022-12-07T01:18:05;5.60;;;0.98;;
61642;SDS011;47551;52.506;4.678;2022-12-07T01:18:26;4.73;;;0.90;;
61642;SDS011;47551;52.506;4.678;2022-12-07T01:18:47;4.32;;;1.00;;
61642;SDS011;47551;52.506;4.678;2022-12-07T01:19:08;6.70;;;1.00;;
61642;SDS011;47551;52.506;4.678;2022-12-07T01:19:28;7.43;;;0.90;;
61642;SDS011;47551;52.506;4.678;2022-12-07T01:19:48;6.60;;;0.80;;
61642;SDS011;47551;52.506;4.678;2022-12-07T01:20:08;5.30;;;0.75;;
61642;SDS011;47551;52.506;4.678;2022-12-07T01:20:29;5.27;;;0.90;;
61642;SDS011;47551;52.506;4.678;2022-12-07T01:21:02;5.37;;;0.90;;
61642;SDS011;47551;52.506;4.678;2022-12-07T01:21:24;5.43;;;0.70;;
61642;SDS011;47551;52.506;4.678;2022-12-07T01:21:44;6.97;;;0.90;;
61642;SDS011;47551;52.506;4.678;2022-12-07T01:22:04;6.13;;;0.80;;
61642;SDS011;47551;52.506;4.678;2022-12-07T01:22:24;5.17;;;0.80;;
61642;SDS011;47551;52.506;4.678;2022-12-07T01:22:45;4.43;;;0.63;;
61642;SDS011;47551;52.506;4.678;2022-12-07T01:23:05;4.70;;;0.90;;
61642;SDS011;47551;52.506;4.678;2022-12-07T01:23:26;4.22;;;0.93;;
61642;SDS011;47551;52.506;4.678;2022-12-07T01:23:46;5.87;;;0.90;;
61642;SDS011;47551;52.506;4.678;2022-12-07T01:24:07;5.68;;;0.88;;
61642;SDS011;47551;52.506;4.678;2022-12-07T01:24:28;5.60;;;0.52;;
61642;SDS011;47551;52.506;4.678;2022-12-07T01:24:49;7.37;;;0.80;;
61642;SDS011;47551;52.506;4.678;2022-12-07T01:25:10;5.73;;;0.80;;
61642;SDS011;47551;52.506;4.678;2022-12-07T01:25:30;4.10;;;0.70;;
61642;SDS011;47551;52.506;4.678;2022-12-07T01:25:54;5.05;;;0.90;;
61642;SDS011;47551;52.506;4.678;2022-12-07T01:26:15;6.15;;;1.00;;
61642;SDS011;47551;52.506;4.678;2022-12-07T01:26:36;5.35;;;0.95;;
61642;SDS011;47551;52.506;4.678;2022-12-07T01:26:56;3.88;;;0.80;;
61642;SDS011;47551;52.506;4.678;2022-12-07T01:27:16;4.87;;;0.70;;
61642;SDS011;47551;52.506;4.678;2022-12-07T01:27:37;5.47;;;0.73;;
61642;SDS011;47551;52.506;4.678;2022-12-07T01:27:57;6.30;;;0.80;;
61642;SDS011;47551;52.506;4.678;2022-12-07T01:28:17;5.43;;;0.77;;
61642;SDS011;47551;52.506;4.678;2022-12-07T01:28:37;7.07;;;0.90;;
61642;SDS011;47551;52.506;4.678;2022-12-07T01:28:57;6.50;;;0.80;;
61642;SDS011;47551;52.506;4.678;2022-12-07T01:29:19;5.32;;;0.77;;
61642;SDS011;47551;52.506;4.678;2022-12-07T01:29:39;5.93;;;0.87;;
61642;SDS011;47551;52.506;4.678;2022-12-07T01:29:59;5.23;;;0.90;;
61642;SDS011;47551;52.506;4.678;2022-12-07T01:30:20;4.82;;;0.65;;
61642;SDS011;47551;52.506;4.678;2022-12-07T01:30:40;5.40;;;0.80;;
61642;SDS011;47551;52.506;4.678;2022-12-07T01:31:01;6.27;;;0.90;;
61642;SDS011;47551;52.506;4.678;2022-12-07T01:31:25;6.43;;;0.80;;
61642;SDS011;47551;52.506;4.678;2022-12-07T01:31:47;4.50;;;0.80;;
61642;SDS011;47551;52.506;4.678;2022-12-07T01:32:08;6.05;;;0.95;;
61642;SDS011;47551;52.506;4.678;2022-12-07T01:32:28;6.57;;;1.00;;
61642;SDS011;47551;52.506;4.678;2022-12-07T01:32:48;6.72;;;0.98;;
61642;SDS011;47551;52.506;4.678;2022-12-07T01:33:08;6.30;;;0.90;;
61642;SDS011;47551;52.506;4.678;2022-12-07T01:33:30;5.47;;;0.90;;
61642;SDS011;47551;52.506;4.678;2022-12-07T01:33:51;5.85;;;0.93;;
61642;SDS011;47551;52.506;4.678;2022-12-07T01:34:12;5.47;;;0.93;;
61642;SDS011;47551;52.506;4.678;2022-12-07T01:34:32;5.57;;;0.80;;
61642;SDS011;47551;52.506;4.678;2022-12-07T01:34:52;5.10;;;1.00;;
61642;SDS011;47551;52.506;4.678;2022-12-07T01:35:13;5.15;;;0.90;;
61642;SDS011;47551;52.506;4.678;2022-12-07T01:35:33;6.13;;;1.00;;
61642;SDS011;47551;52.506;4.678;2022-12-07T01:35:54;5.13;;;0.80;;
61642;SDS011;47551;52.506;4.678;2022-12-07T01:36:18;6.80;;;1.00;;
61642;SDS011;47551;52.506;4.678;2022-12-07T01:36:38;6.35;;;1.00;;
61642;SDS011;47551;52.506;4.678;2022-12-07T01:36:58;6.65;;;0.88;;
61642;SDS011;47551;52.506;4.678;2022-12-07T01:37:19;6.10;;;0.90;;
61642;SDS011;47551;52.506;4.678;2022-12-07T01:37:39;5.97;;;0.93;;
61642;SDS011;47551;52.506;4.678;2022-12-07T01:37:59;6.07;;;0.80;;
61642;SDS011;47551;52.506;4.678;2022-12-07T01:38:19;6.50;;;1.05;;
61642;SDS011;47551;52.506;4.678;2022-12-07T01:38:40;6.77;;;1.03;;
61642;SDS011;47551;52.506;4.678;2022-12-07T01:39:02;6.33;;;0.97;;
61642;SDS011;47551;52.506;4.678;2022-12-07T01:39:22;6.70;;;1.15;;
61642;SDS011;47551;52.506;4.678;2022-12-07T01:39:42;6.80;;;1.00;;
61642;SDS011;47551;52.506;4.678;2022-12-07T01:40:03;6.30;;;0.90;;
61642;SDS011;47551;52.506;4.678;2022-12-07T01:40:24;5.57;;;0.90;;
61642;SDS011;47551;52.506;4.678;2022-12-07T01:40:44;4.53;;;0.80;;
61642;SDS011;47551;52.506;4.678;2022-12-07T01:41:04;6.33;;;1.00;;
61642;SDS011;47551;52.506;4.678;2022-12-07T01:41:25;6.83;;;1.10;;
61642;SDS011;47551;52.506;4.678;2022-12-07T01:41:46;5.68;;;0.90;;
61642;SDS011;47551;52.506;4.678;2022-12-07T01:42:09;5.07;;;0.93;;
61642;SDS011;47551;52.506;4.678;2022-12-07T01:42:29;6.43;;;1.08;;
61642;SDS011;47551;52.506;4.678;2022-12-07T01:42:49;6.80;;;1.10;;
61642;SDS011;47551;52.506;4.678;2022-12-07T01:43:18;5.78;;;1.00;;
61642;SDS011;47551;52.506;4.678;2022-12-07T01:44:29;6.78;;;0.90;;
61642;SDS011;47551;52.506;4.678;2022-12-07T01:45:20;4.78;;;0.90;;
61642;SDS011;47551;52.506;4.678;2022-12-07T01:45:43;5.70;;;1.00;;
61642;SDS011;47551;52.506;4.678;2022-12-07T01:46:03;5.50;;;0.83;;
61642;SDS011;47551;52.506;4.678;2022-12-07T01:46:24;6.33;;;0.87;;
61642;SDS011;47551;52.506;4.678;2022-12-07T01:46:45;5.87;;;1.00;;
61642;SDS011;47551;52.506;4.678;2022-12-07T01:47:06;4.65;;;0.80;;
61642;SDS011;47551;52.506;4.678;2022-12-07T01:47:26;5.85;;;0.80;;
61642;SDS011;47551;52.506;4.678;2022-12-07T01:47:51;5.35;;;0.90;;
61642;SDS011;47551;52.506;4.678;2022-12-07T01:48:13;6.15;;;0.90;;
61642;SDS011;47551;52.506;4.678;2022-12-07T01:48:34;5.55;;;0.80;;
61642;SDS011;47551;52.506;4.678;2022-12-07T01:48:57;6.40;;;0.93;;
61642;SDS011;47551;52.506;4.678;2022-12-07T01:49:18;3.77;;;0.70;;
61642;SDS011;47551;52.506;4.678;2022-12-07T01:49:41;5.38;;;0.88;;
61642;SDS011;47551;52.506;4.678;2022-12-07T01:50:02;5.03;;;0.82;;
61642;SDS011;47551;52.506;4.678;2022-12-07T01:50:24;4.73;;;0.70;;
61642;SDS011;47551;52.506;4.678;2022-12-07T01:50:47;5.22;;;1.00;;
61642;SDS011;47551;52.506;4.678;2022-12-07T01:51:11;5.97;;;1.00;;
61642;SDS011;47551;52.506;4.678;2022-12-07T01:51:36;4.93;;;1.00;;
61642;SDS011;47551;52.506;4.678;2022-12-07T01:52:48;5.75;;;0.93;;
61642;SDS011;47551;52.506;4.678;2022-12-07T01:53:09;5.85;;;1.00;;
61642;SDS011;47551;52.506;4.678;2022-12-07T01:53:30;7.07;;;1.13;;
61642;SDS011;47551;52.506;4.678;2022-12-07T01:53:51;5.93;;;0.80;;
61642;SDS011;47551;52.506;4.678;2022-12-07T01:54:12;4.75;;;0.80;;
61642;SDS011;47551;52.506;4.678;2022-12-07T01:54:34;5.80;;;0.82;;
61642;SDS011;47551;52.506;4.678;2022-12-07T01:54:56;7.07;;;0.93;;
61642;SDS011;47551;52.506;4.678;2022-12-07T01:55:20;5.53;;;1.00;;
61642;SDS011;47551;52.506;4.678;2022-12-07T01:55:42;7.28;;;1.02;;
61642;SDS011;47551;52.506;4.678;2022-12-07T01:56:03;5.25;;;0.80;;
61642;SDS011;47551;52.506;4.678;2022-12-07T01:56:26;7.18;;;0.80;;
61642;SDS011;47551;52.506;4.678;2022-12-07T01:56:49;5.38;;;0.80;;
61642;SDS011;47551;52.506;4.678;2022-12-07T01:57:10;4.50;;;0.90;;
61642;SDS011;47551;52.506;4.678;2022-12-07T01:57:32;6.20;;;1.10;;
61642;SDS011;47551;52.506;4.678;2022-12-07T01:57:53;6.57;;;1.05;;
61642;SDS011;47551;52.506;4.678;2022-12-07T01:58:14;6.93;;;0.98;;
61642;SDS011;47551;52.506;4.678;2022-12-07T01:58:35;7.87;;;0.90;;
61642;SDS011;47551;52.506;4.678;2022-12-07T01:58:55;5.55;;;0.80;;
61642;SDS011;47551;52.506;4.678;2022-12-07T01:59:19;6.28;;;0.90;;
61642;SDS011;47551;52.506;4.678;2022-12-07T01:59:41;7.28;;;1.00;;
61642;SDS011;47551;52.506;4.678;2022-12-07T02:00:03;5.90;;;0.88;;
61642;SDS011;47551;52.506;4.678;2022-12-07T02:00:24;6.00;;;0.85;;
61642;SDS011;47551;52.506;4.678;2022-12-07T02:00:44;5.27;;;0.80;;
61642;SDS011;47551;52.506;4.678;2022-12-07T02:01:04;3.87;;;0.70;;
61642;SDS011;47551;52.506;4.678;2022-12-07T02:01:24;5.35;;;1.10;;
61642;SDS011;47551;52.506;4.678;2022-12-07T02:01:45;5.00;;;0.97;;
61642;SDS011;47551;52.506;4.678;2022-12-07T02:02:07;6.87;;;0.90;;
61642;SDS011;47551;52.506;4.678;2022-12-07T02:02:33;5.97;;;1.00;;
61642;SDS011;47551;52.506;4.678;2022-12-07T02:02:57;5.95;;;0.90;;
61642;SDS011;47551;52.506;4.678;2022-12-07T02:03:27;4.88;;;0.90;;
61642;SDS011;47551;52.506;4.678;2022-12-07T02:03:50;6.30;;;0.90;;
61642;SDS011;47551;52.506;4.678;2022-12-07T02:04:11;6.87;;;1.00;;
61642;SDS011;47551;52.506;4.678;2022-12-07T02:04:31;7.13;;;0.77;;
61642;SDS011;47551;52.506;4.678;2022-12-07T02:04:52;6.35;;;0.80;;
61642;SDS011;47551;52.506;4.678;2022-12-07T02:05:13;5.28;;;0.80;;
61642;SDS011;47551;52.506;4.678;2022-12-07T02:05:34;5.93;;;1.10;;
61642;SDS011;47551;52.506;4.678;2022-12-07T02:05:55;5.65;;;1.10;;
61642;SDS011;47551;52.506;4.678;2022-12-07T02:06:16;6.43;;;1.00;;
61642;SDS011;47551;52.506;4.678;2022-12-07T02:06:38;6.93;;;0.98;;
61642;SDS011;47551;52.506;4.678;2022-12-07T02:06:58;5.10;;;0.80;;
61642;SDS011;47551;52.506;4.678;2022-12-07T02:07:18;5.73;;;0.80;;
61642;SDS011;47551;52.506;4.678;2022-12-07T02:07:39;6.28;;;0.77;;
61642;SDS011;47551;52.506;4.678;2022-12-07T02:08:00;5.82;;;0.80;;
61642;SDS011;47551;52.506;4.678;2022-12-07T02:08:20;4.17;;;0.80;;
61642;SDS011;47551;52.506;4.678;2022-12-07T02:08:40;4.03;;;0.80;;